createdAt,value
2017-01-06T00:00:05.132Z,28.07
2017-01-06T00:00:33.039Z,28.19
2017-01-06T00:01:00.863Z,28.19
2017-01-06T00:01:28.960Z,28.25
2017-01-06T00:01:57.354Z,28.2
2017-01-06T00:02:25.277Z,28.25
2017-01-06T00:02:53.623Z,28.17
2017-01-06T00:03:21.813Z,28.15
2017-01-06T00:03:49.679Z,28.19
2017-01-06T00:04:17.592Z,28.23
2017-01-06T00:04:45.368Z,28.04
2017-01-06T00:05:13.862Z,28.2
2017-01-06T00:05:41.828Z,28.19
2017-01-06T00:06:09.787Z,28.14
2017-01-06T00:06:37.678Z,28.19
2017-01-06T00:07:05.483Z,28.14
2017-01-06T00:07:33.291Z,28.1
2017-01-06T00:08:01.176Z,28.15
2017-01-06T00:08:29.016Z,28.08
2017-01-06T00:08:57.110Z,28.05
2017-01-06T00:09:25.090Z,28.08
2017-01-06T00:09:52.985Z,28.12
2017-01-06T00:10:21.170Z,28.1
2017-01-06T00:10:49.040Z,28.15
2017-01-06T00:11:19.252Z,28
2017-01-06T00:11:48.140Z,28.11
2017-01-06T00:12:16.183Z,28.1
2017-01-06T00:12:44.836Z,28.1
2017-01-06T00:13:13.083Z,28.12
2017-01-06T00:13:41.039Z,28.01
2017-01-06T00:14:08.843Z,28
2017-01-06T00:14:36.983Z,28.02
2017-01-06T00:15:05.520Z,28
2017-01-06T00:15:33.859Z,28
2017-01-06T00:16:01.838Z,27.96
2017-01-06T00:16:29.999Z,28.08
2017-01-06T00:16:58.064Z,27.98
2017-01-06T00:17:26.026Z,27.98
2017-01-06T00:17:53.961Z,27.96
2017-01-06T00:18:22.228Z,27.96
2017-01-06T00:18:50.067Z,28.01
2017-01-06T00:19:19.686Z,28.07
2017-01-06T00:19:47.537Z,28.08
2017-01-06T00:20:15.849Z,28
2017-01-06T00:20:43.812Z,28.04
2017-01-06T00:21:11.743Z,28.07
2017-01-06T00:21:40.124Z,28.02
2017-01-06T00:22:07.983Z,28.02
2017-01-06T00:22:35.873Z,28.04
2017-01-06T00:23:05.301Z,28.11
2017-01-06T00:23:33.243Z,28.1
2017-01-06T00:24:03.802Z,28.1
2017-01-06T00:24:32.540Z,28.12
2017-01-06T00:25:02.396Z,28.08
2017-01-06T00:25:30.702Z,27.96
2017-01-06T00:25:58.829Z,28.01
2017-01-06T00:26:26.634Z,28.07
2017-01-06T00:26:54.669Z,28.04
2017-01-06T00:27:22.752Z,28.05
2017-01-06T00:27:52.737Z,28.08
2017-01-06T00:28:21.598Z,28.01
2017-01-06T00:28:49.464Z,28.08
2017-01-06T00:29:17.369Z,28.11
2017-01-06T00:29:45.351Z,28.02
2017-01-06T00:30:13.220Z,28.11
2017-01-06T00:30:42.299Z,28.15
2017-01-06T00:31:10.580Z,28.14
2017-01-06T00:31:38.880Z,28.08
2017-01-06T00:32:06.863Z,28.14
2017-01-06T00:32:34.799Z,28.11
2017-01-06T00:33:02.593Z,28.05
2017-01-06T00:33:35.250Z,28.05
2017-01-06T00:34:03.104Z,28.01
2017-01-06T00:34:32.127Z,28.02
2017-01-06T00:35:00.014Z,28
2017-01-06T00:35:27.897Z,28.01
2017-01-06T00:35:56.412Z,28.04
2017-01-06T00:36:24.399Z,27.98
2017-01-06T00:36:52.294Z,28.01
2017-01-06T00:37:20.306Z,28.05
2017-01-06T00:37:49.354Z,28
2017-01-06T00:38:17.231Z,28
2017-01-06T00:38:45.420Z,27.9
2017-01-06T00:39:13.418Z,27.87
2017-01-06T00:39:41.402Z,27.95
2017-01-06T00:40:09.210Z,27.93
2017-01-06T00:40:37.084Z,27.9
2017-01-06T00:41:04.935Z,27.96
2017-01-06T00:41:32.744Z,27.98
2017-01-06T00:42:00.580Z,28
2017-01-06T00:42:28.406Z,27.95
2017-01-06T00:42:56.540Z,27.98
2017-01-06T00:43:24.779Z,28
2017-01-06T00:43:55.790Z,27.96
2017-01-06T00:44:25.981Z,27.98
2017-01-06T00:44:53.870Z,27.86
2017-01-06T00:45:21.764Z,27.87
2017-01-06T00:45:51.742Z,27.96
2017-01-06T00:46:19.984Z,27.92
2017-01-06T00:46:47.904Z,27.92
2017-01-06T00:47:16.697Z,27.9
2017-01-06T00:47:45.886Z,27.87
2017-01-06T00:48:14.795Z,27.86
2017-01-06T00:48:42.696Z,27.93
2017-01-06T00:49:10.639Z,27.93
2017-01-06T00:49:38.695Z,27.92
2017-01-06T00:50:06.553Z,27.9
2017-01-06T00:50:34.924Z,27.93
2017-01-06T00:51:03.600Z,27.95
2017-01-06T00:51:31.489Z,27.96
2017-01-06T00:51:59.296Z,27.93
2017-01-06T00:52:28.051Z,27.93
2017-01-06T00:52:56.175Z,27.93
2017-01-06T00:53:25.444Z,27.89
2017-01-06T00:53:53.308Z,27.92
2017-01-06T00:54:21.784Z,27.82
2017-01-06T00:54:49.725Z,27.9
2017-01-06T00:55:18.591Z,27.9
2017-01-06T00:55:47.177Z,27.89
2017-01-06T00:56:15.166Z,27.87
2017-01-06T00:56:43.294Z,27.86
2017-01-06T00:57:11.437Z,27.87
2017-01-06T00:57:39.299Z,27.8
2017-01-06T00:58:07.715Z,27.75
2017-01-06T00:58:37.945Z,27.78
2017-01-06T00:59:06.245Z,27.78
2017-01-06T00:59:34.167Z,27.77
2017-01-06T01:00:02.123Z,27.65
2017-01-06T01:00:31.198Z,27.74
2017-01-06T01:00:59.174Z,27.67
2017-01-06T01:01:27.062Z,27.6
2017-01-06T01:01:55.034Z,27.63
2017-01-06T01:02:23.195Z,27.6
2017-01-06T01:02:51.593Z,27.55
2017-01-06T01:03:19.569Z,27.51
2017-01-06T01:03:47.796Z,27.47
2017-01-06T01:04:15.762Z,27.48
2017-01-06T01:04:43.852Z,27.52
2017-01-06T01:05:11.977Z,27.54
2017-01-06T01:05:42.276Z,27.51
2017-01-06T01:06:11.824Z,27.42
2017-01-06T01:06:39.885Z,27.48
2017-01-06T01:07:07.829Z,27.49
2017-01-06T01:07:37.621Z,27.48
2017-01-06T01:08:05.468Z,27.48
2017-01-06T01:08:33.939Z,27.47
2017-01-06T01:09:01.766Z,27.37
2017-01-06T01:09:29.853Z,27.44
2017-01-06T01:09:58.145Z,27.54
2017-01-06T01:10:25.932Z,27.36
2017-01-06T01:10:53.818Z,27.36
2017-01-06T01:11:21.977Z,27.33
2017-01-06T01:11:50.122Z,27.29
2017-01-06T01:12:17.988Z,27.32
2017-01-06T01:12:45.838Z,27.25
2017-01-06T01:13:13.735Z,27.29
2017-01-06T01:13:41.710Z,27.27
2017-01-06T01:14:09.515Z,27.27
2017-01-06T01:14:37.413Z,27.27
2017-01-06T01:15:05.484Z,27.25
2017-01-06T01:15:33.304Z,27.36
2017-01-06T01:16:01.311Z,27.27
2017-01-06T01:16:29.269Z,27.3
2017-01-06T01:16:57.098Z,27.35
2017-01-06T01:17:24.933Z,27.37
2017-01-06T01:17:52.802Z,27.37
2017-01-06T01:18:21.264Z,27.26
2017-01-06T01:18:49.173Z,27.27
2017-01-06T01:19:16.982Z,27.33
2017-01-06T01:19:44.820Z,27.39
2017-01-06T01:20:12.824Z,27.36
2017-01-06T01:20:40.641Z,27.37
2017-01-06T01:21:08.493Z,27.42
2017-01-06T01:21:36.357Z,27.39
2017-01-06T01:22:04.204Z,27.42
2017-01-06T01:22:32.011Z,27.49
2017-01-06T01:22:59.844Z,27.47
2017-01-06T01:23:27.649Z,27.48
2017-01-06T01:23:55.656Z,27.51
2017-01-06T01:24:23.575Z,27.44
2017-01-06T01:24:51.560Z,27.48
2017-01-06T01:25:19.377Z,27.45
2017-01-06T01:25:47.269Z,27.58
2017-01-06T01:26:15.077Z,27.49
2017-01-06T01:26:42.925Z,27.48
2017-01-06T01:27:11.274Z,27.44
2017-01-06T01:27:39.170Z,27.48
2017-01-06T01:28:07.516Z,27.47
2017-01-06T01:28:35.663Z,27.49
2017-01-06T01:29:03.710Z,27.47
2017-01-06T01:29:33.741Z,27.44
2017-01-06T01:30:01.740Z,27.39
2017-01-06T01:30:29.645Z,27.33
2017-01-06T01:30:57.971Z,27.35
2017-01-06T01:31:25.908Z,27.37
2017-01-06T01:31:57.220Z,27.39
2017-01-06T01:32:25.952Z,27.44
2017-01-06T01:32:53.897Z,27.27
2017-01-06T01:33:21.813Z,27.39
2017-01-06T01:33:49.824Z,27.26
2017-01-06T01:34:18.079Z,27.29
2017-01-06T01:34:46.146Z,27.21
2017-01-06T01:35:14.367Z,27.2
2017-01-06T01:35:42.124Z,27.22
2017-01-06T01:36:10.495Z,27.22
2017-01-06T01:36:38.757Z,27.18
2017-01-06T01:37:07.507Z,27.15
2017-01-06T01:37:36.433Z,27.17
2017-01-06T01:38:06.289Z,27.15
2017-01-06T01:38:36.599Z,27.15
2017-01-06T01:39:05.057Z,27.2
2017-01-06T01:39:33.660Z,27.15
2017-01-06T01:40:01.930Z,27.2
2017-01-06T01:40:30.605Z,27.02
2017-01-06T01:40:59.619Z,27.1
2017-01-06T01:41:29.034Z,27.12
2017-01-06T01:41:56.905Z,27.11
2017-01-06T01:42:25.377Z,27.15
2017-01-06T01:42:53.218Z,27.15
2017-01-06T01:43:21.140Z,27.2
2017-01-06T01:43:49.321Z,27.22
2017-01-06T01:44:17.438Z,27.17
2017-01-06T01:44:45.761Z,27.12
2017-01-06T01:45:14.272Z,27.12
2017-01-06T01:45:42.994Z,27.11
2017-01-06T01:46:11.145Z,27.05
2017-01-06T01:46:41.675Z,26.97
2017-01-06T01:47:09.690Z,26.92
2017-01-06T01:47:37.525Z,26.93
2017-01-06T01:48:05.401Z,26.97
2017-01-06T01:48:33.606Z,26.97
2017-01-06T01:49:01.528Z,26.99
2017-01-06T01:49:29.444Z,27.07
2017-01-06T01:49:57.373Z,27.03
2017-01-06T01:50:25.288Z,26.97
2017-01-06T01:50:53.098Z,26.92
2017-01-06T01:51:21.043Z,27.03
2017-01-06T01:51:49.688Z,26.99
2017-01-06T01:52:17.553Z,27.03
2017-01-06T01:52:45.350Z,27.08
2017-01-06T01:53:13.239Z,27.03
2017-01-06T01:53:41.092Z,27.07
2017-01-06T01:54:08.955Z,26.99
2017-01-06T01:54:36.750Z,27.07
2017-01-06T01:55:04.798Z,26.97
2017-01-06T01:55:32.746Z,27.05
2017-01-06T01:56:00.522Z,27.1
2017-01-06T01:56:28.347Z,26.99
2017-01-06T01:56:56.242Z,26.97
2017-01-06T01:57:24.119Z,27.1
2017-01-06T01:57:51.875Z,27.11
2017-01-06T01:58:19.779Z,27.07
2017-01-06T01:58:47.595Z,27.12
2017-01-06T01:59:15.480Z,27.03
2017-01-06T01:59:43.318Z,27.05
2017-01-06T02:00:11.342Z,27.1
2017-01-06T02:00:39.239Z,27.02
2017-01-06T02:01:07.005Z,27.07
2017-01-06T02:01:34.997Z,27.05
2017-01-06T02:02:40.184Z,27.02
2017-01-06T02:03:08.043Z,27
2017-01-06T02:03:36.017Z,26.95
2017-01-06T02:04:03.821Z,27
2017-01-06T02:04:31.740Z,26.96
2017-01-06T02:04:59.660Z,26.93
2017-01-06T02:05:27.786Z,26.99
2017-01-06T02:05:55.576Z,26.97
2017-01-06T02:06:23.409Z,27
2017-01-06T02:06:51.283Z,27
2017-01-06T02:07:19.120Z,27.02
2017-01-06T02:07:46.937Z,26.96
2017-01-06T02:08:14.833Z,27.02
2017-01-06T02:08:42.608Z,27
2017-01-06T02:09:10.483Z,26.97
2017-01-06T02:09:38.365Z,27.03
2017-01-06T02:10:06.281Z,27
2017-01-06T02:10:34.158Z,27
2017-01-06T02:11:02.060Z,27
2017-01-06T02:11:29.929Z,26.96
2017-01-06T02:11:57.855Z,26.95
2017-01-06T02:12:25.786Z,27
2017-01-06T02:12:53.676Z,26.95
2017-01-06T02:13:21.593Z,26.99
2017-01-06T02:13:49.396Z,26.89
2017-01-06T02:14:17.603Z,26.93
2017-01-06T02:14:45.451Z,27
2017-01-06T02:15:13.284Z,26.9
2017-01-06T02:15:41.364Z,26.89
2017-01-06T02:16:09.164Z,26.95
2017-01-06T02:16:37.000Z,26.89
2017-01-06T02:17:04.782Z,26.93
2017-01-06T02:17:32.710Z,26.95
2017-01-06T02:18:00.517Z,26.88
2017-01-06T02:18:28.427Z,26.83
2017-01-06T02:18:56.321Z,26.92
2017-01-06T02:19:24.253Z,26.88
2017-01-06T02:19:52.093Z,26.9
2017-01-06T02:20:20.230Z,26.84
2017-01-06T02:20:48.332Z,26.89
2017-01-06T02:21:16.251Z,26.8
2017-01-06T02:21:44.155Z,26.85
2017-01-06T02:22:12.030Z,26.84
2017-01-06T02:22:40.029Z,26.83
2017-01-06T02:23:07.934Z,26.88
2017-01-06T02:23:35.959Z,26.89
2017-01-06T02:24:03.801Z,26.83
2017-01-06T02:24:31.996Z,26.85
2017-01-06T02:25:00.087Z,26.88
2017-01-06T02:25:28.124Z,26.85
2017-01-06T02:25:56.087Z,26.85
2017-01-06T02:26:24.166Z,26.77
2017-01-06T02:26:52.184Z,26.8
2017-01-06T02:27:20.179Z,26.68
2017-01-06T02:27:48.257Z,26.81
2017-01-06T02:28:16.271Z,26.65
2017-01-06T02:28:44.164Z,26.74
2017-01-06T02:29:12.137Z,26.66
2017-01-06T02:29:40.324Z,26.66
2017-01-06T02:30:08.113Z,26.7
2017-01-06T02:30:36.190Z,26.6
2017-01-06T02:31:04.144Z,26.58
2017-01-06T02:31:32.098Z,26.52
2017-01-06T02:31:59.919Z,26.47
2017-01-06T02:32:27.767Z,26.52
2017-01-06T02:32:55.811Z,26.48
2017-01-06T02:33:23.736Z,26.52
2017-01-06T02:33:51.619Z,26.52
2017-01-06T02:34:19.519Z,26.53
2017-01-06T02:34:47.405Z,26.48
2017-01-06T02:35:15.273Z,26.52
2017-01-06T02:35:43.192Z,26.45
2017-01-06T02:36:11.020Z,26.63
2017-01-06T02:36:38.867Z,26.59
2017-01-06T02:37:06.756Z,26.56
2017-01-06T02:37:34.742Z,26.56
2017-01-06T02:38:02.570Z,26.59
2017-01-06T02:38:30.420Z,26.56
2017-01-06T02:38:58.256Z,26.51
2017-01-06T02:39:26.167Z,26.59
2017-01-06T02:39:54.137Z,26.59
2017-01-06T02:40:22.097Z,26.51
2017-01-06T02:40:50.038Z,26.55
2017-01-06T02:41:17.925Z,26.59
2017-01-06T02:41:45.744Z,26.55
2017-01-06T02:42:13.582Z,26.55
2017-01-06T02:42:41.352Z,26.56
2017-01-06T02:43:09.177Z,26.6
2017-01-06T02:43:37.113Z,26.55
2017-01-06T02:44:05.011Z,26.55
2017-01-06T02:44:32.849Z,26.62
2017-01-06T02:45:00.683Z,26.56
2017-01-06T02:45:28.616Z,26.56
2017-01-06T02:45:56.499Z,26.52
2017-01-06T02:46:24.315Z,26.53
2017-01-06T02:46:52.167Z,26.51
2017-01-06T02:47:19.980Z,26.51
2017-01-06T02:47:47.782Z,26.58
2017-01-06T02:48:15.612Z,26.59
2017-01-06T02:48:43.545Z,26.52
2017-01-06T02:49:11.323Z,26.52
2017-01-06T02:49:39.145Z,26.51
2017-01-06T02:50:06.975Z,26.53
2017-01-06T02:50:34.894Z,26.47
2017-01-06T02:51:02.726Z,26.38
2017-01-06T02:51:30.608Z,26.44
2017-01-06T02:51:58.396Z,26.48
2017-01-06T02:52:26.196Z,26.4
2017-01-06T02:52:53.964Z,26.41
2017-01-06T02:53:21.780Z,26.44
2017-01-06T02:53:49.595Z,26.52
2017-01-06T02:54:17.490Z,26.44
2017-01-06T02:54:45.275Z,26.44
2017-01-06T02:55:13.184Z,26.41
2017-01-06T02:55:41.129Z,26.33
2017-01-06T02:56:09.021Z,26.34
2017-01-06T02:56:36.830Z,26.36
2017-01-06T02:57:04.614Z,26.38
2017-01-06T02:57:32.512Z,26.33
2017-01-06T02:58:00.464Z,26.36
2017-01-06T02:58:28.307Z,26.44
2017-01-06T02:58:56.253Z,26.44
2017-01-06T02:59:24.173Z,26.48
2017-01-06T02:59:52.154Z,26.51
2017-01-06T03:00:19.981Z,26.51
2017-01-06T03:00:48.025Z,26.58
2017-01-06T03:01:15.974Z,26.52
2017-01-06T03:01:43.815Z,26.45
2017-01-06T03:02:11.591Z,26.38
2017-01-06T03:02:39.452Z,26.37
2017-01-06T03:03:07.348Z,26.43
2017-01-06T03:03:35.140Z,26.4
2017-01-06T03:04:02.911Z,26.47
2017-01-06T03:04:30.794Z,26.53
2017-01-06T03:04:58.704Z,26.45
2017-01-06T03:05:26.663Z,26.41
2017-01-06T03:05:54.699Z,26.55
2017-01-06T03:06:22.526Z,26.45
2017-01-06T03:06:50.473Z,26.41
2017-01-06T03:07:18.447Z,26.36
2017-01-06T03:07:46.336Z,26.4
2017-01-06T03:08:14.202Z,26.44
2017-01-06T03:08:41.986Z,26.44
2017-01-06T03:09:09.861Z,26.31
2017-01-06T03:09:37.726Z,26.25
2017-01-06T03:10:05.512Z,26.34
2017-01-06T03:10:33.341Z,26.28
2017-01-06T03:11:01.329Z,26.34
2017-01-06T03:11:29.214Z,26.33
2017-01-06T03:11:56.986Z,26.38
2017-01-06T03:12:24.854Z,26.41
2017-01-06T03:12:52.663Z,26.31
2017-01-06T03:13:20.544Z,26.26
2017-01-06T03:13:48.406Z,26.28
2017-01-06T03:14:16.280Z,26.36
2017-01-06T03:14:44.086Z,26.33
2017-01-06T03:15:11.988Z,26.34
2017-01-06T03:15:39.801Z,26.37
2017-01-06T03:16:07.739Z,26.28
2017-01-06T03:16:35.605Z,26.34
2017-01-06T03:17:03.493Z,26.29
2017-01-06T03:17:31.414Z,26.34
2017-01-06T03:17:59.307Z,26.4
2017-01-06T03:18:27.179Z,26.28
2017-01-06T03:18:55.024Z,26.34
2017-01-06T03:19:22.822Z,26.31
2017-01-06T03:19:50.598Z,26.26
2017-01-06T03:20:18.566Z,26.23
2017-01-06T03:20:46.477Z,26.33
2017-01-06T03:21:14.360Z,26.29
2017-01-06T03:21:42.127Z,26.33
2017-01-06T03:22:09.951Z,26.26
2017-01-06T03:22:37.753Z,26.25
2017-01-06T03:23:05.665Z,26.13
2017-01-06T03:23:33.516Z,26.28
2017-01-06T03:24:01.417Z,26.21
2017-01-06T03:24:29.263Z,26.18
2017-01-06T03:24:57.107Z,26.23
2017-01-06T03:25:25.026Z,26.26
2017-01-06T03:25:53.007Z,26.31
2017-01-06T03:26:20.802Z,26.31
2017-01-06T03:26:48.668Z,26.34
2017-01-06T03:27:16.431Z,26.28
2017-01-06T03:27:44.365Z,26.23
2017-01-06T03:28:12.232Z,26.25
2017-01-06T03:28:40.051Z,26.26
2017-01-06T03:29:08.037Z,26.28
2017-01-06T03:29:35.917Z,26.26
2017-01-06T03:30:03.801Z,26.31
2017-01-06T03:30:31.603Z,26.26
2017-01-06T03:30:59.499Z,26.31
2017-01-06T03:31:27.318Z,26.16
2017-01-06T03:31:55.183Z,26.21
2017-01-06T03:32:23.004Z,26.1
2017-01-06T03:32:50.934Z,26.21
2017-01-06T03:33:18.731Z,26.1
2017-01-06T03:33:46.546Z,26.13
2017-01-06T03:34:14.400Z,26.13
2017-01-06T03:34:42.397Z,26
2017-01-06T03:35:10.291Z,26.06
2017-01-06T03:35:38.142Z,26.1
2017-01-06T03:36:06.078Z,26.06
2017-01-06T03:36:33.966Z,26
2017-01-06T03:37:01.840Z,25.99
2017-01-06T03:37:29.668Z,26.02
2017-01-06T03:37:57.570Z,26.07
2017-01-06T03:38:25.412Z,26.09
2017-01-06T03:38:53.293Z,26.02
2017-01-06T03:39:21.160Z,26.06
2017-01-06T03:39:48.982Z,26.05
2017-01-06T03:40:16.824Z,25.84
2017-01-06T03:40:44.685Z,25.88
2017-01-06T03:41:12.726Z,25.87
2017-01-06T03:41:40.634Z,25.91
2017-01-06T03:42:08.452Z,25.81
2017-01-06T03:42:36.228Z,25.83
2017-01-06T03:43:04.135Z,25.88
2017-01-06T03:43:32.007Z,25.87
2017-01-06T03:43:59.788Z,25.88
2017-01-06T03:44:27.625Z,25.9
2017-01-06T03:44:55.435Z,25.9
2017-01-06T03:45:23.412Z,25.88
2017-01-06T03:45:51.240Z,25.81
2017-01-06T03:46:19.174Z,25.9
2017-01-06T03:46:47.040Z,25.9
2017-01-06T03:47:14.908Z,25.84
2017-01-06T03:47:42.717Z,25.85
2017-01-06T03:48:10.575Z,25.85
2017-01-06T03:48:38.389Z,25.81
2017-01-06T03:49:06.231Z,25.84
2017-01-06T03:49:34.026Z,25.87
2017-01-06T03:50:01.863Z,25.83
2017-01-06T03:50:29.693Z,25.78
2017-01-06T03:50:57.536Z,25.83
2017-01-06T03:51:25.542Z,25.83
2017-01-06T03:51:53.371Z,25.88
2017-01-06T03:52:21.188Z,25.93
2017-01-06T03:52:49.018Z,25.88
2017-01-06T03:53:16.838Z,25.96
2017-01-06T03:53:44.745Z,25.95
2017-01-06T03:54:12.597Z,26
2017-01-06T03:54:40.415Z,26.02
2017-01-06T03:55:08.310Z,26.05
2017-01-06T03:55:36.194Z,26
2017-01-06T03:56:04.088Z,26
2017-01-06T03:56:32.093Z,25.99
2017-01-06T03:56:59.967Z,25.95
2017-01-06T03:57:27.781Z,26.02
2017-01-06T03:57:55.613Z,26.02
2017-01-06T03:58:23.447Z,26.02
2017-01-06T03:58:51.206Z,26
2017-01-06T03:59:19.055Z,25.98
2017-01-06T03:59:46.845Z,25.96
2017-01-06T04:00:14.651Z,25.91
2017-01-06T04:00:42.547Z,25.85
2017-01-06T04:01:10.400Z,25.98
2017-01-06T04:01:38.247Z,26
2017-01-06T04:02:06.041Z,25.96
2017-01-06T04:02:34.011Z,25.98
2017-01-06T04:03:01.836Z,26
2017-01-06T04:03:29.679Z,25.95
2017-01-06T04:03:57.425Z,25.98
2017-01-06T04:04:25.201Z,25.93
2017-01-06T04:04:53.017Z,25.9
2017-01-06T04:05:20.802Z,25.87
2017-01-06T04:05:48.557Z,25.84
2017-01-06T04:06:16.384Z,25.83
2017-01-06T04:06:44.264Z,25.93
2017-01-06T04:07:12.073Z,25.87
2017-01-06T04:07:39.867Z,25.88
2017-01-06T04:08:07.798Z,25.88
2017-01-06T04:08:35.572Z,25.9
2017-01-06T04:09:03.409Z,25.88
2017-01-06T04:09:31.261Z,25.99
2017-01-06T04:09:59.096Z,26
2017-01-06T04:10:27.028Z,26.05
2017-01-06T04:10:54.860Z,26.02
2017-01-06T04:11:22.681Z,26.02
2017-01-06T04:11:50.581Z,26.02
2017-01-06T04:12:18.386Z,26
2017-01-06T04:12:46.218Z,26.03
2017-01-06T04:13:14.087Z,26.07
2017-01-06T04:13:41.948Z,26.07
2017-01-06T04:14:09.777Z,26.02
2017-01-06T04:14:37.560Z,26.06
2017-01-06T04:15:05.407Z,26.03
2017-01-06T04:15:33.303Z,26.05
2017-01-06T04:16:01.158Z,26.02
2017-01-06T04:16:29.128Z,25.95
2017-01-06T04:16:56.924Z,25.88
2017-01-06T04:17:24.837Z,25.98
2017-01-06T04:17:52.688Z,25.96
2017-01-06T04:18:20.485Z,26.05
2017-01-06T04:18:48.285Z,25.96
2017-01-06T04:19:16.143Z,26.03
2017-01-06T04:19:44.009Z,25.99
2017-01-06T04:20:11.870Z,25.99
2017-01-06T04:20:39.724Z,26.05
2017-01-06T04:21:07.550Z,26
2017-01-06T04:21:35.424Z,26.03
2017-01-06T04:22:03.228Z,26.15
2017-01-06T04:22:31.104Z,26.13
2017-01-06T04:22:58.968Z,26.15
2017-01-06T04:23:26.812Z,26.18
2017-01-06T04:23:54.635Z,26.13
2017-01-06T04:24:22.480Z,26.16
2017-01-06T04:24:50.288Z,26.13
2017-01-06T04:25:18.170Z,26.07
2017-01-06T04:25:46.025Z,26.05
2017-01-06T04:26:13.894Z,26.05
2017-01-06T04:26:41.821Z,26.02
2017-01-06T04:27:09.713Z,26.09
2017-01-06T04:27:37.509Z,26.13
2017-01-06T04:28:05.368Z,26.13
2017-01-06T04:28:33.138Z,26.05
2017-01-06T04:29:00.938Z,26.15
2017-01-06T04:29:29.018Z,26.03
2017-01-06T04:29:56.930Z,26.09
2017-01-06T04:30:24.771Z,26.03
2017-01-06T04:30:52.631Z,26.15
2017-01-06T04:31:20.405Z,26.13
2017-01-06T04:31:48.407Z,26.07
2017-01-06T04:32:16.196Z,26.07
2017-01-06T04:32:43.957Z,26.02
2017-01-06T04:33:11.828Z,26.06
2017-01-06T04:33:39.594Z,26.07
2017-01-06T04:34:07.424Z,26.05
2017-01-06T04:34:35.290Z,25.99
2017-01-06T04:35:03.149Z,26.03
2017-01-06T04:35:30.942Z,25.99
2017-01-06T04:35:58.894Z,26.03
2017-01-06T04:36:26.718Z,26.03
2017-01-06T04:36:54.596Z,26.02
2017-01-06T04:37:22.383Z,26.02
2017-01-06T04:37:50.271Z,26.03
2017-01-06T04:38:18.136Z,26.03
2017-01-06T04:38:45.937Z,26.02
2017-01-06T04:39:13.864Z,26.1
2017-01-06T04:39:41.722Z,26.06
2017-01-06T04:40:09.680Z,26
2017-01-06T04:40:37.517Z,26.03
2017-01-06T04:41:05.340Z,25.95
2017-01-06T04:41:33.159Z,25.98
2017-01-06T04:42:01.034Z,25.93
2017-01-06T04:42:28.996Z,25.9
2017-01-06T04:42:56.762Z,25.88
2017-01-06T04:43:24.588Z,25.99
2017-01-06T04:43:52.410Z,25.98
2017-01-06T04:44:20.308Z,25.95
2017-01-06T04:44:48.156Z,25.88
2017-01-06T04:45:15.940Z,25.85
2017-01-06T04:45:43.782Z,25.9
2017-01-06T04:46:11.573Z,25.85
2017-01-06T04:46:39.372Z,25.9
2017-01-06T04:47:07.283Z,25.9
2017-01-06T04:47:35.099Z,25.91
2017-01-06T04:48:02.987Z,25.88
2017-01-06T04:48:30.777Z,25.87
2017-01-06T04:48:58.656Z,26
2017-01-06T04:49:26.496Z,25.96
2017-01-06T04:49:54.347Z,26
2017-01-06T04:50:22.144Z,25.95
2017-01-06T04:50:49.944Z,25.95
2017-01-06T04:51:17.853Z,25.91
2017-01-06T04:51:45.841Z,25.96
2017-01-06T04:52:13.754Z,26.02
2017-01-06T04:52:41.588Z,26.02
2017-01-06T04:53:09.388Z,26.02
2017-01-06T04:53:37.255Z,26
2017-01-06T04:54:05.169Z,25.99
2017-01-06T04:54:32.965Z,26.02
2017-01-06T04:55:00.780Z,25.98
2017-01-06T04:55:28.677Z,25.91
2017-01-06T04:55:56.482Z,25.96
2017-01-06T04:56:24.331Z,25.87
2017-01-06T04:56:52.303Z,25.88
2017-01-06T04:57:20.190Z,25.85
2017-01-06T04:57:48.016Z,25.88
2017-01-06T04:58:15.813Z,25.88
2017-01-06T04:58:43.725Z,25.9
2017-01-06T04:59:11.538Z,25.9
2017-01-06T04:59:39.303Z,25.93
2017-01-06T05:00:07.075Z,25.87
2017-01-06T05:00:35.004Z,25.9
2017-01-06T05:01:02.918Z,25.78
2017-01-06T05:01:30.777Z,25.91
2017-01-06T05:01:58.700Z,25.83
2017-01-06T05:02:26.473Z,25.95
2017-01-06T05:02:54.368Z,25.88
2017-01-06T05:03:22.159Z,25.88
2017-01-06T05:03:50.002Z,25.85
2017-01-06T05:04:17.784Z,25.91
2017-01-06T05:04:45.649Z,25.9
2017-01-06T05:05:13.419Z,25.88
2017-01-06T05:05:41.317Z,25.88
2017-01-06T05:06:09.184Z,25.95
2017-01-06T05:06:37.003Z,25.9
2017-01-06T05:07:04.937Z,25.9
2017-01-06T05:07:32.726Z,25.98
2017-01-06T05:08:00.547Z,25.96
2017-01-06T05:08:28.420Z,25.96
2017-01-06T05:08:56.273Z,26
2017-01-06T05:09:24.092Z,25.87
2017-01-06T05:09:51.941Z,25.91
2017-01-06T05:10:19.763Z,25.93
2017-01-06T05:10:47.569Z,25.84
2017-01-06T05:11:15.430Z,25.88
2017-01-06T05:11:43.375Z,25.83
2017-01-06T05:12:11.349Z,25.8
2017-01-06T05:12:39.154Z,25.8
2017-01-06T05:13:07.009Z,25.7
2017-01-06T05:13:34.966Z,25.78
2017-01-06T05:14:02.775Z,25.7
2017-01-06T05:14:30.791Z,25.6
2017-01-06T05:14:58.758Z,25.66
2017-01-06T05:15:26.553Z,25.6
2017-01-06T05:15:54.380Z,25.6
2017-01-06T05:16:22.225Z,25.7
2017-01-06T05:16:50.024Z,25.62
2017-01-06T05:17:17.928Z,25.62
2017-01-06T05:17:45.703Z,25.6
2017-01-06T05:18:13.594Z,25.63
2017-01-06T05:18:41.399Z,25.6
2017-01-06T05:19:09.187Z,25.62
2017-01-06T05:19:37.103Z,25.63
2017-01-06T05:20:04.912Z,25.62
2017-01-06T05:20:32.735Z,25.53
2017-01-06T05:21:00.574Z,25.65
2017-01-06T05:21:28.472Z,25.62
2017-01-06T05:21:56.256Z,25.53
2017-01-06T05:22:24.202Z,25.5
2017-01-06T05:22:51.992Z,25.51
2017-01-06T05:23:19.893Z,25.5
2017-01-06T05:23:47.669Z,25.5
2017-01-06T05:24:15.487Z,25.5
2017-01-06T05:24:43.380Z,25.43
2017-01-06T05:25:11.251Z,25.43
2017-01-06T05:25:39.197Z,25.44
2017-01-06T05:26:07.122Z,25.46
2017-01-06T05:26:35.003Z,25.48
2017-01-06T05:27:02.880Z,25.48
2017-01-06T05:27:30.623Z,25.41
2017-01-06T05:27:58.429Z,25.4
2017-01-06T05:28:26.245Z,25.33
2017-01-06T05:28:54.090Z,25.33
2017-01-06T05:29:21.882Z,25.35
2017-01-06T05:29:49.746Z,25.41
2017-01-06T05:30:17.512Z,25.43
2017-01-06T05:30:45.348Z,25.41
2017-01-06T05:31:13.436Z,25.44
2017-01-06T05:31:41.286Z,25.36
2017-01-06T05:32:09.239Z,25.36
2017-01-06T05:32:37.096Z,25.36
2017-01-06T05:33:04.931Z,25.36
2017-01-06T05:33:32.788Z,25.41
2017-01-06T05:34:00.617Z,25.38
2017-01-06T05:34:28.378Z,25.41
2017-01-06T05:34:56.164Z,25.46
2017-01-06T05:35:24.031Z,25.41
2017-01-06T05:35:51.789Z,25.41
2017-01-06T05:36:19.694Z,25.46
2017-01-06T05:36:47.522Z,25.35
2017-01-06T05:37:15.461Z,25.38
2017-01-06T05:37:43.316Z,25.47
2017-01-06T05:38:11.124Z,25.4
2017-01-06T05:38:39.011Z,25.4
2017-01-06T05:39:07.001Z,25.5
2017-01-06T05:39:34.887Z,25.47
2017-01-06T05:40:02.689Z,25.47
2017-01-06T05:40:30.457Z,25.54
2017-01-06T05:40:58.373Z,25.53
2017-01-06T05:41:26.177Z,25.5
2017-01-06T05:41:53.989Z,25.58
2017-01-06T05:42:21.918Z,25.54
2017-01-06T05:42:49.846Z,25.48
2017-01-06T05:43:17.607Z,25.59
2017-01-06T05:43:45.485Z,25.62
2017-01-06T05:44:13.231Z,25.59
2017-01-06T05:44:41.069Z,25.62
2017-01-06T05:45:08.847Z,25.51
2017-01-06T05:45:36.591Z,25.63
2017-01-06T05:46:04.419Z,25.62
2017-01-06T05:46:32.242Z,25.63
2017-01-06T05:47:00.080Z,25.59
2017-01-06T05:47:28.096Z,25.62
2017-01-06T05:47:55.942Z,25.59
2017-01-06T05:48:23.821Z,25.65
2017-01-06T05:48:51.597Z,25.63
2017-01-06T05:49:19.441Z,25.63
2017-01-06T05:49:47.267Z,25.6
2017-01-06T05:50:15.228Z,25.62
2017-01-06T05:50:43.133Z,25.62
2017-01-06T05:51:10.890Z,25.55
2017-01-06T05:51:38.682Z,25.63
2017-01-06T05:52:06.475Z,25.6
2017-01-06T05:52:34.333Z,25.63
2017-01-06T05:53:02.143Z,25.63
2017-01-06T05:53:29.998Z,25.62
2017-01-06T05:53:57.876Z,25.65
2017-01-06T05:54:25.674Z,25.6
2017-01-06T05:54:53.494Z,25.63
2017-01-06T05:55:21.282Z,25.62
2017-01-06T05:55:49.047Z,25.63
2017-01-06T05:56:16.817Z,25.62
2017-01-06T05:56:44.598Z,25.6
2017-01-06T05:57:12.385Z,25.58
2017-01-06T05:57:40.248Z,25.59
2017-01-06T05:58:08.044Z,25.59
2017-01-06T05:58:36.009Z,25.62
2017-01-06T05:59:03.806Z,25.65
2017-01-06T05:59:31.591Z,25.62
2017-01-06T05:59:59.465Z,25.68
2017-01-06T06:00:27.214Z,25.6
2017-01-06T06:00:54.954Z,25.58
2017-01-06T06:01:22.703Z,25.65
2017-01-06T06:01:50.499Z,25.63
2017-01-06T06:02:18.256Z,25.62
2017-01-06T06:02:46.232Z,25.62
2017-01-06T06:03:14.033Z,25.51
2017-01-06T06:03:41.875Z,25.51